| Back to River Map | <<< Previous Forecast Point | | | Next Forecast Point >>> | Printer Version | Graph Version |  |
|
SPANISH CREEK - KEDDIE (SCBC1)
| Latitude: 40.00º N | Longitude: 120.95º W | Elevation: 3130 Feet | | Forecast Type: Unofficial Location |
| Location: Plumas County in California | Bulletin Group: Lower Sacramento | River Group: Feather Yuba |
| Issuance Time: | May 10 2026 at 7:31 AM PDT | Next Issuance: | May 11 2026 at 9:00 AM PDT
| |
| Action/Monitor: N/A | Minor Flood: N/A | Moderate Flood: N/A | Major Flood: N/A |
# Tabular Observed and Forecast Hydrograph Information
#
# Location: Spanish Creek - Keddie (SCBC1)
#
# File Generation Time: 05/10/2026 at 07:32 AM PDT
# Data Interval: 1 Hour
#
# Most Recent Date & Time of Maximum Observed: 05/05/2026 at 10:00 AM PDT
# Maximum Observed Stage: 2.45 Feet
# Maximum Observed Flow: 206 cfs
#
# Earliest Date & Time of Maximum Forecast: 05/10/2026 at 07:00 AM PDT
# Maximum Forecast Stage: 2.24 Feet
# Maximum Forecast Flow: 157 cfs
#
# OBSERVED
#
# Date & Time (Local) Stage (Feet) Flow (cfs) Trend Observed Status
# ---------------------------------------------------------------------------------
05/05/2026 07 AM PDT 2.44 204 Not Applicable
05/05/2026 08 AM PDT 2.45 206 + Not Applicable
05/05/2026 09 AM PDT 2.44 204 - Not Applicable
05/05/2026 10 AM PDT 2.45 206 + Not Applicable
05/05/2026 11 AM PDT 2.44 204 - Not Applicable
05/05/2026 12 PM PDT 2.43 201 - Not Applicable
05/05/2026 01 PM PDT 2.43 201 0 Not Applicable
05/05/2026 02 PM PDT 2.43 201 0 Not Applicable
05/05/2026 03 PM PDT 2.43 201 0 Not Applicable
05/05/2026 04 PM PDT 2.42 199 - Not Applicable
05/05/2026 05 PM PDT 2.43 201 + Not Applicable
05/05/2026 06 PM PDT 2.43 201 0 Not Applicable
05/05/2026 07 PM PDT 2.42 199 - Not Applicable
05/05/2026 08 PM PDT 2.42 199 0 Not Applicable
05/05/2026 09 PM PDT 2.41 196 - Not Applicable
05/05/2026 10 PM PDT 2.41 196 0 Not Applicable
05/05/2026 11 PM PDT 2.41 196 0 Not Applicable
05/06/2026 12 AM PDT 2.40 194 - Not Applicable
05/06/2026 01 AM PDT 2.40 194 0 Not Applicable
05/06/2026 02 AM PDT 2.40 194 0 Not Applicable
05/06/2026 03 AM PDT 2.39 191 - Not Applicable
05/06/2026 04 AM PDT 2.40 194 + Not Applicable
05/06/2026 05 AM PDT 2.39 191 - Not Applicable
05/06/2026 06 AM PDT 2.40 194 + Not Applicable
05/06/2026 07 AM PDT 2.40 194 0 Not Applicable
05/06/2026 08 AM PDT 2.39 191 - Not Applicable
05/06/2026 09 AM PDT 2.39 191 0 Not Applicable
05/06/2026 10 AM PDT 2.40 194 + Not Applicable
05/06/2026 11 AM PDT 2.38 189 - Not Applicable
05/06/2026 12 PM PDT 2.39 191 + Not Applicable
05/06/2026 01 PM PDT 2.39 191 0 Not Applicable
05/06/2026 02 PM PDT 2.39 191 0 Not Applicable
05/06/2026 03 PM PDT 2.40 194 + Not Applicable
05/06/2026 04 PM PDT 2.38 189 - Not Applicable
05/06/2026 05 PM PDT 2.38 189 0 Not Applicable
05/06/2026 06 PM PDT 2.38 189 0 Not Applicable
05/06/2026 07 PM PDT 2.38 189 0 Not Applicable
05/06/2026 08 PM PDT 2.38 189 0 Not Applicable
05/06/2026 09 PM PDT 2.38 189 0 Not Applicable
05/06/2026 10 PM PDT 2.37 186 - Not Applicable
05/06/2026 11 PM PDT 2.37 186 0 Not Applicable
05/07/2026 12 AM PDT 2.36 184 - Not Applicable
05/07/2026 01 AM PDT 2.35 182 - Not Applicable
05/07/2026 02 AM PDT 2.36 184 + Not Applicable
05/07/2026 03 AM PDT 2.36 184 0 Not Applicable
05/07/2026 04 AM PDT 2.35 182 - Not Applicable
05/07/2026 05 AM PDT 2.35 182 0 Not Applicable
05/07/2026 06 AM PDT 2.36 184 + Not Applicable
05/07/2026 07 AM PDT 2.35 182 - Not Applicable
05/07/2026 08 AM PDT 2.36 184 + Not Applicable
05/07/2026 09 AM PDT 2.36 184 0 Not Applicable
05/07/2026 10 AM PDT 2.35 182 - Not Applicable
05/07/2026 11 AM PDT 2.36 184 + Not Applicable
05/07/2026 12 PM PDT 2.36 184 0 Not Applicable
05/07/2026 01 PM PDT 2.36 184 0 Not Applicable
05/07/2026 02 PM PDT 2.36 184 0 Not Applicable
05/07/2026 03 PM PDT 2.35 182 - Not Applicable
05/07/2026 04 PM PDT 2.35 182 0 Not Applicable
05/07/2026 05 PM PDT 2.34 179 - Not Applicable
05/07/2026 06 PM PDT 2.35 182 + Not Applicable
05/07/2026 07 PM PDT 2.34 179 - Not Applicable
05/07/2026 08 PM PDT 2.34 179 0 Not Applicable
05/07/2026 09 PM PDT 2.33 177 - Not Applicable
05/07/2026 10 PM PDT 2.33 177 0 Not Applicable
05/07/2026 11 PM PDT 2.32 175 - Not Applicable
05/08/2026 12 AM PDT 2.32 175 0 Not Applicable
05/08/2026 01 AM PDT 2.31 172 - Not Applicable
05/08/2026 02 AM PDT 2.32 175 + Not Applicable
05/08/2026 03 AM PDT 2.31 172 - Not Applicable
05/08/2026 04 AM PDT 2.31 172 0 Not Applicable
05/08/2026 05 AM PDT 2.31 172 0 Not Applicable
05/08/2026 06 AM PDT 2.32 175 + Not Applicable
05/08/2026 07 AM PDT 2.31 172 - Not Applicable
05/08/2026 08 AM PDT 2.31 172 0 Not Applicable
05/08/2026 09 AM PDT 2.31 172 0 Not Applicable
05/08/2026 10 AM PDT 2.32 175 + Not Applicable
05/08/2026 11 AM PDT 2.32 175 0 Not Applicable
05/08/2026 12 PM PDT 2.31 172 - Not Applicable
05/08/2026 01 PM PDT 2.33 177 + Not Applicable
05/08/2026 02 PM PDT 2.32 175 - Not Applicable
05/08/2026 03 PM PDT 2.32 175 0 Not Applicable
05/08/2026 04 PM PDT 2.32 175 0 Not Applicable
05/08/2026 05 PM PDT 2.32 175 0 Not Applicable
05/08/2026 06 PM PDT 2.31 172 - Not Applicable
05/08/2026 07 PM PDT 2.30 170 - Not Applicable
05/08/2026 08 PM PDT 2.31 172 + Not Applicable
05/08/2026 09 PM PDT 2.30 170 - Not Applicable
05/08/2026 10 PM PDT 2.29 168 - Not Applicable
05/08/2026 11 PM PDT 2.29 168 0 Not Applicable
05/09/2026 12 AM PDT 2.28 165 - Not Applicable
05/09/2026 01 AM PDT 2.27 163 - Not Applicable
05/09/2026 02 AM PDT 2.27 163 0 Not Applicable
05/09/2026 03 AM PDT 2.28 165 + Not Applicable
05/09/2026 04 AM PDT 2.28 165 0 Not Applicable
05/09/2026 05 AM PDT 2.27 163 - Not Applicable
05/09/2026 06 AM PDT 2.27 163 0 Not Applicable
05/09/2026 07 AM PDT 2.28 165 + Not Applicable
05/09/2026 08 AM PDT 2.28 165 0 Not Applicable
05/09/2026 09 AM PDT 2.27 163 - Not Applicable
05/09/2026 10 AM PDT 2.28 165 + Not Applicable
05/09/2026 11 AM PDT 2.28 165 0 Not Applicable
05/09/2026 12 PM PDT 2.28 165 0 Not Applicable
05/09/2026 01 PM PDT 2.29 168 + Not Applicable
05/09/2026 02 PM PDT 2.29 168 0 Not Applicable
05/09/2026 03 PM PDT 2.28 165 - Not Applicable
05/09/2026 04 PM PDT 2.28 165 0 Not Applicable
05/09/2026 05 PM PDT 2.28 165 0 Not Applicable
05/09/2026 06 PM PDT 2.27 163 - Not Applicable
05/09/2026 07 PM PDT 2.27 163 0 Not Applicable
05/09/2026 08 PM PDT 2.26 161 - Not Applicable
05/09/2026 09 PM PDT 2.26 161 0 Not Applicable
05/09/2026 10 PM PDT 2.25 159 - Not Applicable
05/09/2026 11 PM PDT 2.25 159 0 Not Applicable
05/10/2026 12 AM PDT 2.24 157 - Not Applicable
05/10/2026 01 AM PDT 2.24 157 0 Not Applicable
05/10/2026 02 AM PDT 2.24 157 0 Not Applicable
05/10/2026 03 AM PDT 2.24 157 0 Not Applicable
05/10/2026 04 AM PDT 2.23 154 - Not Applicable
05/10/2026 05 AM PDT 2.24 157 + Not Applicable
05/10/2026 06 AM PDT 2.24 157 0 Not Applicable
#
# FORECAST
#
# Date & Time (Local) Stage (Feet) Flow (cfs) Trend Forecast Status
# ---------------------------------------------------------------------------------
05/10/2026 07 AM PDT 2.24 157 Not Applicable
05/10/2026 08 AM PDT 2.23 154 - Not Applicable
05/10/2026 09 AM PDT 2.23 154 0 Not Applicable
05/10/2026 10 AM PDT 2.23 154 0 Not Applicable
05/10/2026 11 AM PDT 2.23 154 0 Not Applicable
05/10/2026 12 PM PDT 2.23 154 0 Not Applicable
05/10/2026 01 PM PDT 2.23 154 0 Not Applicable
05/10/2026 02 PM PDT 2.23 154 0 Not Applicable
05/10/2026 03 PM PDT 2.22 152 - Not Applicable
05/10/2026 04 PM PDT 2.22 152 0 Not Applicable
05/10/2026 05 PM PDT 2.22 152 0 Not Applicable
05/10/2026 06 PM PDT 2.22 152 0 Not Applicable
05/10/2026 07 PM PDT 2.22 152 0 Not Applicable
05/10/2026 08 PM PDT 2.22 152 0 Not Applicable
05/10/2026 09 PM PDT 2.21 150 - Not Applicable
05/10/2026 10 PM PDT 2.21 150 0 Not Applicable
05/10/2026 11 PM PDT 2.21 150 0 Not Applicable
05/11/2026 12 AM PDT 2.21 150 0 Not Applicable
05/11/2026 01 AM PDT 2.21 150 0 Not Applicable
05/11/2026 02 AM PDT 2.21 150 0 Not Applicable
05/11/2026 03 AM PDT 2.21 150 0 Not Applicable
05/11/2026 04 AM PDT 2.21 150 0 Not Applicable
05/11/2026 05 AM PDT 2.20 148 - Not Applicable
05/11/2026 06 AM PDT 2.20 148 0 Not Applicable
05/11/2026 07 AM PDT 2.20 148 0 Not Applicable
05/11/2026 08 AM PDT 2.20 148 0 Not Applicable
05/11/2026 09 AM PDT 2.20 148 0 Not Applicable
05/11/2026 10 AM PDT 2.20 148 0 Not Applicable
05/11/2026 11 AM PDT 2.19 146 - Not Applicable
05/11/2026 12 PM PDT 2.19 146 0 Not Applicable
05/11/2026 01 PM PDT 2.19 146 0 Not Applicable
05/11/2026 02 PM PDT 2.19 146 0 Not Applicable
05/11/2026 03 PM PDT 2.19 146 0 Not Applicable
05/11/2026 04 PM PDT 2.19 146 0 Not Applicable
05/11/2026 05 PM PDT 2.18 144 - Not Applicable
05/11/2026 06 PM PDT 2.18 144 0 Not Applicable
05/11/2026 07 PM PDT 2.18 144 0 Not Applicable
05/11/2026 08 PM PDT 2.18 144 0 Not Applicable
05/11/2026 09 PM PDT 2.18 144 0 Not Applicable
05/11/2026 10 PM PDT 2.18 144 0 Not Applicable
05/11/2026 11 PM PDT 2.17 142 - Not Applicable
05/12/2026 12 AM PDT 2.17 142 0 Not Applicable
05/12/2026 01 AM PDT 2.17 142 0 Not Applicable
05/12/2026 02 AM PDT 2.17 142 0 Not Applicable
05/12/2026 03 AM PDT 2.17 142 0 Not Applicable
05/12/2026 04 AM PDT 2.17 142 0 Not Applicable
05/12/2026 05 AM PDT 2.17 142 0 Not Applicable
05/12/2026 06 AM PDT 2.16 140 - Not Applicable
05/12/2026 07 AM PDT 2.16 140 0 Not Applicable
05/12/2026 08 AM PDT 2.16 140 0 Not Applicable
05/12/2026 09 AM PDT 2.16 140 0 Not Applicable
05/12/2026 10 AM PDT 2.16 140 0 Not Applicable
05/12/2026 11 AM PDT 2.16 140 0 Not Applicable
05/12/2026 12 PM PDT 2.15 138 - Not Applicable
05/12/2026 01 PM PDT 2.15 138 0 Not Applicable
05/12/2026 02 PM PDT 2.15 138 0 Not Applicable
05/12/2026 03 PM PDT 2.15 138 0 Not Applicable
05/12/2026 04 PM PDT 2.15 138 0 Not Applicable
05/12/2026 05 PM PDT 2.15 138 0 Not Applicable
05/12/2026 06 PM PDT 2.15 138 0 Not Applicable
05/12/2026 07 PM PDT 2.14 136 - Not Applicable
05/12/2026 08 PM PDT 2.14 136 0 Not Applicable
05/12/2026 09 PM PDT 2.14 136 0 Not Applicable
05/12/2026 10 PM PDT 2.14 136 0 Not Applicable
05/12/2026 11 PM PDT 2.14 136 0 Not Applicable
05/13/2026 12 AM PDT 2.14 136 0 Not Applicable
05/13/2026 01 AM PDT 2.14 136 0 Not Applicable
05/13/2026 02 AM PDT 2.13 134 - Not Applicable
05/13/2026 03 AM PDT 2.13 134 0 Not Applicable
05/13/2026 04 AM PDT 2.13 134 0 Not Applicable
05/13/2026 05 AM PDT 2.13 134 0 Not Applicable
05/13/2026 06 AM PDT 2.13 134 0 Not Applicable
05/13/2026 07 AM PDT 2.13 134 0 Not Applicable
05/13/2026 08 AM PDT 2.13 134 0 Not Applicable
05/13/2026 09 AM PDT 2.13 134 0 Not Applicable
05/13/2026 10 AM PDT 2.12 132 - Not Applicable
05/13/2026 11 AM PDT 2.12 132 0 Not Applicable
05/13/2026 12 PM PDT 2.12 132 0 Not Applicable
05/13/2026 01 PM PDT 2.12 132 0 Not Applicable
05/13/2026 02 PM PDT 2.12 132 0 Not Applicable
05/13/2026 03 PM PDT 2.12 132 0 Not Applicable
05/13/2026 04 PM PDT 2.12 132 0 Not Applicable
05/13/2026 05 PM PDT 2.11 130 - Not Applicable
05/13/2026 06 PM PDT 2.11 130 0 Not Applicable
05/13/2026 07 PM PDT 2.11 130 0 Not Applicable
05/13/2026 08 PM PDT 2.11 130 0 Not Applicable
05/13/2026 09 PM PDT 2.11 130 0 Not Applicable
05/13/2026 10 PM PDT 2.10 128 - Not Applicable
05/13/2026 11 PM PDT 2.10 128 0 Not Applicable
05/14/2026 12 AM PDT 2.10 128 0 Not Applicable
05/14/2026 01 AM PDT 2.10 128 0 Not Applicable
05/14/2026 02 AM PDT 2.10 128 0 Not Applicable
05/14/2026 03 AM PDT 2.10 128 0 Not Applicable
05/14/2026 04 AM PDT 2.09 126 - Not Applicable
05/14/2026 05 AM PDT 2.09 126 0 Not Applicable
05/14/2026 06 AM PDT 2.09 126 0 Not Applicable
05/14/2026 07 AM PDT 2.09 126 0 Not Applicable
05/14/2026 08 AM PDT 2.08 124 - Not Applicable
05/14/2026 09 AM PDT 2.08 124 0 Not Applicable
05/14/2026 10 AM PDT 2.08 124 0 Not Applicable
05/14/2026 11 AM PDT 2.08 124 0 Not Applicable
05/14/2026 12 PM PDT 2.08 124 0 Not Applicable
05/14/2026 01 PM PDT 2.07 122 - Not Applicable
05/14/2026 02 PM PDT 2.07 122 0 Not Applicable
05/14/2026 03 PM PDT 2.07 122 0 Not Applicable
05/14/2026 04 PM PDT 2.06 120 - Not Applicable
05/14/2026 05 PM PDT 2.06 120 0 Not Applicable
05/14/2026 06 PM PDT 2.06 120 0 Not Applicable
05/14/2026 07 PM PDT 2.06 120 0 Not Applicable
05/14/2026 08 PM PDT 2.05 118 - Not Applicable
05/14/2026 09 PM PDT 2.05 118 0 Not Applicable
05/14/2026 10 PM PDT 2.05 118 0 Not Applicable
05/14/2026 11 PM PDT 2.04 116 - Not Applicable
05/15/2026 12 AM PDT 2.04 116 0 Not Applicable
05/15/2026 01 AM PDT 2.04 116 0 Not Applicable
05/15/2026 02 AM PDT 2.04 116 0 Not Applicable
05/15/2026 03 AM PDT 2.03 114 - Not Applicable
05/15/2026 04 AM PDT 2.03 114 0 Not Applicable
05/15/2026 05 AM PDT 2.03 114 0 Not Applicable
#
# NOTE 1: Stages are rounded to the nearest hundredth (.01) of a foot.
# NOTE 2: Flows are rounded to the nearest (1) cfs.
# NOTE 3: Trends are determined using hourly change in unrounded stage and flow.
# NOTE 4: Maximum Values are determined using unrounded stage and flow.
|